Blountville, TN

26 11, 2014 12:06 EST (GMT -0500)
Virginia Highlands | Change Station
CLOSE
Current Station
Airport
Location: Abingdon,
Elevation: 2070 ft
Nearby Weather Stations
Active Advisory: Winter Weather Advisory Active Notice: Public Information Statement

Elev 2070 ft 36.69 °N, 82.03 °W | Updated 11 minutes ago

Облачно
Облачно
39 °F
Feels Like 37 °F
N
4
Вятър Променлива Вятър from Западен

Днес
High -- | Low -- °F
--% Chance of Precip.
Yesterday
High -- | Low -- °F
Precip. -- инчове
7:18 AM 5:15 PM
Нарастващ полумесец, 21% visible
Атм. налягане 30.02 инчове
Видимост 10.0 мили
Облаци Облачно 500 ft
Температура с отчитане на вятъра 37 °F
Точка на оросяване 37 °F
Влажност 93%
Rainfall 0.91 инчове
Snow Depth Not available.
УВ 1 out of 12
Pollen .10 out of 12
Качество на въздуха Not available.
Flu Activity Not available.
METAR KVJI 261655Z AUTO 27003KT 10SM OVC005 04/03 A3002 RMK AO2 T00400030

More Conditions Fewer Conditions

Атм. налягане 30.02 инчове
Видимост 10.0 мили
Облаци Облачно 500 ft
Температура с отчитане на вятъра 37 °F
Точка на оросяване 37 °F
Влажност 93%
Rainfall 0.91 инчове
Snow Depth Not available.
УВ 1 out of 12
Pollen .10 out of 12
Качество на въздуха Not available.
Flu Activity Not available.
METAR KVJI 261655Z AUTO 27003KT 10SM OVC005 04/03 A3002 RMK AO2 T00400030

More Conditions Fewer Conditions

10-Day Weather Forecast

Almanac

Астрономия

Nov. 26, 2014 Rise Set
Actual Time
Civil Twilight
Nautical Twilight
Astronomical Twilight
Moon
Length Of Visible Light
Продължителност на деня
Tomorrow will be .
, % of the Moon is Illuminated

Today's Extremes

State Highs State Lows

Community

WunderPhotos

Upload Photos

1,773,799 photos uploaded!

WunderBlogs® & News

Nearby

Качество на въздуха

  Качество на въздуха AQ Index Pollutant
Not available.

Snow Depth

Station Depth Elevation

Earthquake Activity

City Distance Mag. Time & Date
Minimum magnitude displayed is 2.5.

Coastal Water Temperatures

Град Температура

Nearby Weather Stations